createdAt,value
2019-02-18T00:02:04.906Z,121.17
2019-02-18T00:04:35.802Z,115.60
2019-02-18T00:07:14.009Z,114.00
2019-02-18T00:09:35.067Z,132.23
2019-02-18T00:12:04.779Z,121.90
2019-02-18T00:14:34.433Z,123.07
2019-02-18T00:17:04.138Z,135.93
2019-02-18T00:19:33.796Z,122.00
2019-02-18T00:22:03.559Z,112.07
2019-02-18T00:24:33.265Z,90.07
2019-02-18T00:27:03.901Z,80.33
2019-02-18T00:29:34.717Z,83.73
2019-02-18T00:32:04.332Z,75.43
2019-02-18T00:34:34.785Z,68.03
2019-02-18T00:37:04.393Z,63.73
2019-02-18T00:39:34.768Z,62.03
2019-02-18T00:42:05.738Z,60.00
2019-02-18T00:44:35.410Z,61.53
2019-02-18T00:47:05.017Z,61.73
2019-02-18T00:49:34.624Z,51.03
2019-02-18T00:52:04.269Z,50.53
2019-02-18T00:54:33.874Z,52.93
2019-02-18T00:57:04.722Z,53.80
2019-02-18T00:59:34.361Z,51.73
2019-02-18T01:02:03.964Z,49.83
2019-02-18T01:04:34.352Z,45.67
2019-02-18T01:07:03.944Z,46.83
2019-02-18T01:09:33.616Z,43.83
2019-02-18T01:12:04.896Z,42.10
2019-02-18T01:14:34.512Z,42.97
2019-02-18T01:17:05.666Z,47.80
2019-02-18T01:19:36.573Z,41.70
2019-02-18T01:22:06.176Z,47.47
2019-02-18T01:24:35.824Z,41.90
2019-02-18T01:27:05.429Z,43.87
2019-02-18T01:29:35.033Z,45.50
2019-02-18T01:32:04.820Z,50.57
2019-02-18T01:34:34.448Z,40.47
2019-02-18T01:37:04.621Z,43.50
2019-02-18T01:39:34.255Z,44.13
2019-02-18T01:42:03.996Z,47.57
2019-02-18T01:44:33.605Z,43.23
2019-02-18T01:47:03.216Z,41.30
2019-02-18T01:49:32.838Z,37.93
2019-02-18T01:52:03.703Z,36.27
2019-02-18T01:54:33.319Z,35.43
2019-02-18T01:57:02.916Z,43.27
2019-02-18T01:59:34.592Z,37.03
2019-02-18T02:02:04.224Z,38.07
2019-02-18T02:04:33.839Z,38.00
2019-02-18T02:07:03.485Z,37.27
2019-02-18T02:09:33.124Z,36.57
2019-02-18T02:12:02.838Z,38.47
2019-02-18T02:14:32.452Z,39.60
2019-02-18T02:17:02.176Z,43.30
2019-02-18T02:19:31.779Z,38.30
2019-02-18T02:22:01.557Z,37.00
2019-02-18T02:24:31.297Z,41.77
2019-02-18T02:27:00.904Z,37.03
2019-02-18T02:29:30.588Z,35.80
2019-02-18T02:32:00.193Z,36.77
2019-02-18T02:34:32.706Z,41.07
2019-02-18T02:37:02.302Z,42.57
2019-02-18T02:39:31.938Z,36.80
2019-02-18T02:42:01.557Z,36.90
2019-02-18T02:44:31.201Z,33.97
2019-02-18T02:47:00.805Z,29.80
2019-02-18T02:49:30.402Z,33.73
2019-02-18T02:52:00.070Z,33.27
2019-02-18T02:54:29.660Z,27.47
2019-02-18T02:56:59.250Z,27.37
2019-02-18T02:59:29.264Z,28.83
2019-02-18T03:01:59.003Z,28.70
2019-02-18T03:04:28.625Z,30.97
2019-02-18T03:06:58.263Z,30.77
2019-02-18T03:09:28.803Z,34.63
2019-02-18T03:11:58.469Z,31.87
2019-02-18T03:14:28.425Z,28.30
2019-02-18T03:16:58.067Z,28.27
2019-02-18T03:19:27.680Z,28.37
2019-02-18T03:21:57.267Z,29.60
2019-02-18T03:24:27.661Z,26.47
2019-02-18T03:26:57.256Z,30.47
2019-02-18T03:30:42.935Z,30.63
2019-02-18T03:33:14.458Z,31.73
2019-02-18T03:35:44.106Z,28.20
2019-02-18T03:38:13.724Z,30.10
2019-02-18T03:40:43.333Z,29.67
2019-02-18T03:43:12.969Z,31.40
2019-02-18T03:45:42.581Z,28.33
2019-02-18T03:48:12.187Z,30.90
2019-02-18T03:50:41.806Z,40.27
2019-02-18T03:53:11.473Z,35.37
2019-02-18T03:55:41.067Z,42.80
2019-02-18T03:58:13.097Z,38.20
2019-02-18T04:00:42.704Z,46.83
2019-02-18T04:03:12.348Z,43.43
2019-02-18T04:05:43.348Z,47.83
2019-02-18T04:08:13.000Z,43.37
2019-02-18T04:10:42.666Z,85.23
2019-02-18T04:13:12.901Z,66.20
2019-02-18T04:15:43.832Z,50.97
2019-02-18T04:18:14.690Z,55.93
2019-02-18T04:20:44.320Z,58.23
2019-02-18T04:23:13.933Z,60.10
2019-02-18T04:25:43.566Z,140.07
2019-02-18T04:28:13.180Z,141.53
2019-02-18T04:30:42.858Z,173.57
2019-02-18T04:33:12.472Z,136.73
2019-02-18T04:35:42.073Z,185.60
2019-02-18T04:38:11.696Z,74.07
2019-02-18T04:40:41.402Z,50.37
2019-02-18T04:44:40.518Z,59.77
2019-02-18T04:47:10.139Z,191.80
2019-02-18T04:49:39.785Z,83.73
2019-02-18T04:52:09.592Z,148.07
2019-02-18T04:54:39.257Z,172.57
2019-02-18T04:57:08.875Z,118.77
2019-02-18T04:59:38.475Z,130.40
2019-02-18T05:02:09.336Z,77.23
2019-02-18T05:04:39.014Z,195.97
2019-02-18T05:07:08.682Z,276.00
2019-02-18T05:09:39.965Z,112.53
2019-02-18T05:12:07.964Z,247.23
2019-02-18T05:14:37.590Z,239.47
2019-02-18T05:17:07.201Z,291.87
2019-02-18T05:19:36.882Z,262.57
2019-02-18T05:22:06.492Z,247.10
2019-02-18T05:24:36.145Z,355.30
2019-02-18T05:27:05.774Z,342.93
2019-02-18T05:29:35.365Z,233.73
2019-02-18T05:32:06.266Z,219.27
2019-02-18T05:34:35.877Z,194.03
2019-02-18T05:37:05.542Z,140.83
2019-02-18T05:39:35.274Z,89.43
2019-02-18T05:42:04.992Z,74.90
2019-02-18T05:44:34.598Z,58.90
2019-02-18T05:47:04.270Z,63.93
2019-02-18T05:49:33.926Z,79.07
2019-02-18T05:52:03.565Z,204.30
2019-02-18T05:54:33.157Z,123.87
2019-02-18T05:57:02.933Z,322.37
2019-02-18T05:59:32.534Z,159.40
2019-02-18T06:02:02.134Z,238.70
2019-02-18T06:04:31.829Z,167.87
2019-02-18T06:07:01.655Z,237.87
2019-02-18T06:09:31.321Z,286.60
2019-02-18T06:12:00.995Z,194.43
2019-02-18T06:14:30.611Z,148.23
2019-02-18T06:17:02.829Z,143.27
2019-02-18T06:19:31.045Z,92.20
2019-02-18T06:22:01.977Z,117.27
2019-02-18T06:24:31.677Z,82.07
2019-02-18T06:27:01.298Z,87.60
2019-02-18T06:29:30.929Z,94.40
2019-02-18T06:32:00.548Z,112.53
2019-02-18T06:34:30.188Z,139.00
2019-02-18T06:36:59.798Z,95.47
2019-02-18T06:39:40.291Z,99.23
2019-02-18T06:41:59.110Z,85.30
2019-02-18T06:44:34.289Z,92.47
2019-02-18T06:47:09.290Z,105.00
2019-02-18T06:49:40.161Z,114.80
2019-02-18T06:52:09.827Z,100.30
2019-02-18T06:54:39.449Z,103.90
2019-02-18T06:57:14.610Z,95.43
2019-02-18T06:59:52.692Z,67.27
2019-02-18T07:02:30.197Z,49.70
2019-02-18T07:05:10.579Z,53.97
2019-02-18T07:07:45.454Z,48.07
2019-02-18T07:10:20.643Z,47.00
2019-02-18T07:12:52.215Z,48.67
2019-02-18T07:15:23.140Z,50.33
2019-02-18T07:17:52.746Z,50.63
2019-02-18T07:20:23.766Z,55.83
2019-02-18T07:22:53.409Z,60.13
2019-02-18T07:25:24.330Z,54.73
2019-02-18T07:27:53.964Z,51.97
2019-02-18T07:30:23.574Z,53.20
2019-02-18T07:32:53.252Z,49.43
2019-02-18T07:35:22.877Z,49.63
2019-02-18T07:37:52.493Z,47.67
2019-02-18T07:40:22.154Z,49.17
2019-02-18T07:42:51.765Z,48.50
2019-02-18T07:45:21.372Z,46.13
2019-02-18T07:47:51.023Z,44.17
2019-02-18T07:50:21.113Z,43.73
2019-02-18T07:52:51.641Z,45.30
2019-02-18T07:55:21.257Z,38.30
2019-02-18T07:57:50.865Z,39.57
2019-02-18T08:00:20.555Z,38.37
2019-02-18T08:02:50.165Z,32.27
2019-02-18T08:05:19.811Z,30.03
2019-02-18T08:07:49.494Z,34.63
2019-02-18T08:10:19.141Z,30.07
2019-02-18T08:12:48.757Z,35.70
2019-02-18T08:15:18.418Z,30.80
2019-02-18T08:17:48.050Z,32.13
2019-02-18T08:20:19.078Z,33.13
2019-02-18T08:22:48.757Z,31.77
2019-02-18T08:25:18.475Z,29.27
2019-02-18T08:27:49.432Z,35.67
2019-02-18T08:30:20.377Z,30.67
2019-02-18T08:32:52.393Z,35.30
2019-02-18T08:35:22.020Z,35.27
2019-02-18T08:37:51.685Z,38.17
2019-02-18T08:40:22.717Z,43.77
2019-02-18T08:42:50.998Z,38.95
2019-02-18T08:45:20.769Z,37.15
2019-02-18T08:47:50.417Z,36.55
2019-02-18T08:50:20.070Z,36.50
2019-02-18T08:52:49.777Z,33.28
2019-02-18T08:55:20.654Z,36.50
2019-02-18T08:57:51.668Z,28.12
2019-02-18T09:00:21.327Z,32.05
2019-02-18T09:02:50.991Z,31.40
2019-02-18T09:05:23.147Z,26.87
2019-02-18T09:07:52.850Z,29.10
2019-02-18T09:10:32.728Z,25.57
2019-02-18T09:12:52.283Z,16.60
2019-02-18T09:15:21.934Z,17.45
2019-02-18T09:17:51.623Z,18.15
2019-02-18T09:20:21.277Z,13.65
2019-02-18T09:22:58.142Z,18.85
2019-02-18T09:25:32.052Z,11.43
2019-02-18T09:28:01.715Z,11.35
2019-02-18T09:30:34.693Z,12.30
2019-02-18T09:33:04.485Z,11.88
2019-02-18T09:35:34.141Z,11.33
2019-02-18T09:38:03.849Z,9.48
2019-02-18T09:40:44.326Z,10.50
2019-02-18T09:43:04.445Z,10.60
2019-02-18T09:45:34.075Z,13.18
2019-02-18T09:48:03.790Z,10.38
2019-02-18T09:50:33.410Z,8.35
2019-02-18T09:53:03.121Z,11.08
2019-02-18T09:55:32.819Z,8.83
2019-02-18T09:58:02.491Z,10.58
2019-02-18T10:00:33.421Z,9.15
2019-02-18T10:03:03.044Z,8.25
2019-02-18T10:05:32.690Z,5.15
2019-02-18T10:08:02.470Z,7.47
2019-02-18T10:10:32.101Z,5.95
2019-02-18T10:13:01.777Z,8.00
2019-02-18T10:15:31.417Z,10.38
2019-02-18T10:18:01.097Z,8.98
2019-02-18T10:20:30.763Z,12.28
2019-02-18T10:23:00.411Z,7.70
2019-02-18T10:25:31.405Z,10.23
2019-02-18T10:28:01.069Z,10.53
2019-02-18T10:30:30.727Z,13.40
2019-02-18T10:33:01.503Z,5.70
2019-02-18T10:35:31.189Z,8.50
2019-02-18T10:38:00.868Z,12.30
2019-02-18T10:40:30.519Z,9.18
2019-02-18T10:43:00.188Z,8.20
2019-02-18T10:45:30.952Z,9.85
2019-02-18T10:48:00.620Z,8.28
2019-02-18T10:50:30.302Z,12.88
2019-02-18T10:53:00.022Z,13.68
2019-02-18T10:55:29.798Z,10.08
2019-02-18T10:57:59.466Z,9.63
2019-02-18T11:00:29.150Z,13.03
2019-02-18T11:02:58.846Z,13.22
2019-02-18T11:05:28.491Z,10.30
2019-02-18T11:07:58.168Z,11.43
2019-02-18T11:10:27.856Z,14.70
2019-02-18T11:12:58.225Z,9.25
2019-02-18T11:15:27.873Z,9.93
2019-02-18T11:17:57.513Z,13.72
2019-02-18T11:20:27.231Z,15.32
2019-02-18T11:22:56.887Z,11.88
2019-02-18T11:25:26.559Z,16.50
2019-02-18T11:27:58.833Z,11.85
2019-02-18T11:30:29.730Z,10.00
2019-02-18T11:33:00.636Z,11.83
2019-02-18T11:35:30.308Z,15.35
2019-02-18T11:38:00.003Z,12.63
2019-02-18T11:40:32.217Z,13.62
2019-02-18T11:43:00.392Z,13.68
2019-02-18T11:45:31.473Z,12.40
2019-02-18T11:48:01.151Z,12.53
2019-02-18T11:50:30.792Z,15.32
2019-02-18T11:53:00.433Z,16.12
2019-02-18T11:55:30.140Z,12.18
2019-02-18T11:57:59.870Z,14.63
2019-02-18T12:00:29.513Z,16.55
2019-02-18T12:03:03.609Z,14.80
2019-02-18T12:05:30.097Z,16.23
2019-02-18T12:07:59.832Z,14.83
2019-02-18T12:10:29.529Z,15.93
2019-02-18T12:12:59.210Z,14.60
2019-02-18T12:15:28.985Z,14.18
2019-02-18T12:17:58.674Z,16.85
2019-02-18T12:20:28.358Z,15.58
2019-02-18T12:22:58.071Z,20.05
2019-02-18T12:25:27.781Z,15.32
2019-02-18T12:27:57.425Z,21.00
2019-02-18T12:30:27.063Z,18.53
2019-02-18T12:32:56.727Z,22.57
2019-02-18T12:35:31.136Z,20.70
2019-02-18T12:37:56.090Z,20.63
2019-02-18T12:40:25.709Z,19.60
2019-02-18T12:42:55.370Z,20.50
2019-02-18T12:45:24.998Z,19.90
2019-02-18T12:47:54.705Z,22.90
2019-02-18T12:50:24.329Z,18.53
2019-02-18T12:52:53.962Z,16.27
2019-02-18T12:55:23.669Z,18.07
2019-02-18T12:57:53.387Z,15.43
2019-02-18T13:00:23.664Z,17.40
2019-02-18T13:02:54.755Z,16.43
2019-02-18T13:05:24.409Z,15.77
2019-02-18T13:07:54.710Z,14.80
2019-02-18T13:10:34.484Z,20.97
2019-02-18T13:12:57.181Z,20.30
2019-02-18T13:15:26.820Z,18.43
2019-02-18T13:17:57.154Z,18.73
2019-02-18T13:20:26.789Z,19.60
2019-02-18T13:22:56.450Z,18.93
2019-02-18T13:25:27.318Z,18.33
2019-02-18T13:27:58.221Z,22.43
2019-02-18T13:30:28.030Z,20.67
2019-02-18T13:32:57.686Z,20.83
2019-02-18T13:35:30.923Z,23.97
2019-02-18T13:38:00.688Z,28.67
2019-02-18T13:40:31.671Z,22.70
2019-02-18T13:43:01.335Z,23.63
2019-02-18T13:45:32.236Z,22.23
2019-02-18T13:48:01.883Z,29.00
2019-02-18T13:50:31.493Z,32.53
2019-02-18T13:53:02.920Z,27.33
2019-02-18T13:55:32.542Z,19.77
2019-02-18T13:58:02.169Z,30.10
2019-02-18T14:00:31.850Z,24.90
2019-02-18T14:03:02.725Z,29.67
2019-02-18T14:05:32.346Z,24.57
2019-02-18T14:08:03.239Z,29.10
2019-02-18T14:10:32.866Z,26.73
2019-02-18T14:13:02.501Z,28.27
2019-02-18T14:15:32.125Z,26.93
2019-02-18T14:18:01.737Z,26.00
2019-02-18T14:20:31.415Z,26.03
2019-02-18T14:23:01.033Z,27.60
2019-02-18T14:25:30.705Z,24.50
2019-02-18T14:28:00.353Z,26.87
2019-02-18T14:30:29.973Z,27.67
2019-02-18T14:32:59.742Z,31.93
2019-02-18T14:35:29.361Z,31.43
2019-02-18T14:38:01.533Z,31.27
2019-02-18T14:40:31.209Z,26.13
2019-02-18T14:43:02.081Z,34.73
2019-02-18T14:45:31.701Z,33.77
2019-02-18T14:48:01.310Z,31.67
2019-02-18T14:50:32.345Z,31.40
2019-02-18T14:53:03.706Z,31.67
2019-02-18T14:55:34.251Z,34.73
2019-02-18T14:58:04.491Z,31.47
2019-02-18T15:00:35.474Z,33.07
2019-02-18T15:03:06.519Z,33.40
2019-02-18T15:05:36.203Z,35.53
2019-02-18T15:08:05.852Z,35.00
2019-02-18T15:10:35.497Z,48.27
2019-02-18T15:13:05.455Z,41.97
2019-02-18T15:15:35.162Z,44.50
2019-02-18T15:18:06.848Z,43.40
2019-02-18T15:20:37.757Z,53.43
2019-02-18T15:23:07.380Z,45.73
2019-02-18T15:25:38.304Z,48.97
2019-02-18T15:28:07.935Z,41.53
2019-02-18T15:30:37.579Z,39.57
2019-02-18T15:33:07.616Z,42.57
2019-02-18T15:35:37.329Z,43.50
2019-02-18T15:38:07.099Z,40.80
2019-02-18T15:40:38.006Z,52.67
2019-02-18T15:43:09.220Z,45.87
2019-02-18T15:45:38.918Z,54.67
2019-02-18T15:48:08.602Z,49.30
2019-02-18T15:50:38.265Z,58.80
2019-02-18T15:53:08.057Z,59.53
2019-02-18T15:55:38.382Z,56.07
2019-02-18T15:58:08.137Z,77.13
2019-02-18T16:00:37.716Z,65.37
2019-02-18T16:03:08.599Z,65.70
2019-02-18T16:05:38.352Z,71.23
2019-02-18T16:08:07.958Z,77.57
2019-02-18T16:10:37.636Z,77.97
2019-02-18T16:13:07.280Z,72.53
2019-02-18T16:15:36.956Z,71.17
2019-02-18T16:18:07.742Z,70.87
2019-02-18T16:20:37.366Z,87.33
2019-02-18T16:23:07.027Z,80.47
2019-02-18T16:25:36.674Z,85.87
2019-02-18T16:28:06.312Z,96.80
2019-02-18T16:30:38.541Z,110.07
2019-02-18T16:33:08.197Z,108.27
2019-02-18T16:35:37.834Z,109.30
2019-02-18T16:38:07.797Z,117.87
2019-02-18T16:40:37.445Z,117.87
2019-02-18T16:43:07.162Z,118.67
2019-02-18T16:45:36.843Z,136.27
2019-02-18T16:48:08.961Z,136.43
2019-02-18T16:50:38.641Z,151.07
2019-02-18T16:53:08.344Z,177.07
2019-02-18T16:55:38.050Z,200.03
2019-02-18T16:58:07.695Z,232.03
2019-02-18T17:00:37.374Z,254.77
2019-02-18T17:03:08.350Z,218.50
2019-02-18T17:05:38.036Z,264.63
2019-02-18T17:08:07.694Z,278.93
2019-02-18T17:10:39.836Z,317.40
2019-02-18T17:13:09.920Z,286.33
2019-02-18T17:15:39.592Z,307.10
2019-02-18T17:18:12.976Z,314.63
2019-02-18T17:20:42.626Z,247.43
2019-02-18T17:23:14.427Z,292.70
2019-02-18T17:25:44.105Z,217.30
2019-02-18T17:28:13.769Z,285.97
2019-02-18T17:30:44.722Z,263.70
2019-02-18T17:33:14.405Z,273.80
2019-02-18T17:35:44.078Z,270.83
2019-02-18T17:38:13.825Z,302.00
2019-02-18T17:40:43.488Z,289.77
2019-02-18T17:43:16.467Z,325.30
2019-02-18T17:45:42.797Z,330.37
2019-02-18T17:48:13.576Z,346.30
2019-02-18T17:50:44.494Z,336.97
2019-02-18T17:53:14.209Z,234.80
2019-02-18T17:55:43.902Z,208.23
2019-02-18T17:58:13.857Z,280.03
2019-02-18T18:00:46.925Z,234.70
2019-02-18T18:03:16.552Z,255.83
2019-02-18T18:05:46.228Z,208.33
2019-02-18T18:08:18.409Z,206.40
2019-02-18T18:10:48.074Z,254.43
2019-02-18T18:13:25.011Z,215.40
2019-02-18T18:15:48.673Z,170.67
2019-02-18T18:18:18.497Z,211.93
2019-02-18T18:20:48.218Z,183.17
2019-02-18T18:23:17.872Z,196.30
2019-02-18T18:25:47.549Z,182.13
2019-02-18T18:28:18.457Z,187.07
2019-02-18T18:30:49.407Z,164.47
2019-02-18T18:33:20.302Z,148.80
2019-02-18T18:35:50.106Z,147.77
2019-02-18T18:38:19.835Z,139.30
2019-02-18T18:40:49.525Z,151.20
2019-02-18T18:43:19.186Z,132.30
2019-02-18T18:45:48.841Z,143.90
2019-02-18T18:48:19.698Z,143.70
2019-02-18T18:50:49.437Z,145.77
2019-02-18T18:53:19.303Z,146.37
2019-02-18T18:55:48.956Z,138.07
2019-02-18T18:58:20.775Z,147.77
2019-02-18T19:00:50.394Z,136.90
2019-02-18T19:03:20.005Z,134.30
2019-02-18T19:05:51.074Z,138.50
2019-02-18T19:08:20.798Z,141.10
2019-02-18T19:10:51.690Z,147.07
2019-02-18T19:13:22.549Z,136.13
2019-02-18T19:15:53.461Z,138.30
2019-02-18T19:18:23.079Z,142.60
2019-02-18T19:20:53.955Z,150.37
2019-02-18T19:23:23.574Z,139.13
2019-02-18T19:25:53.293Z,139.47
2019-02-18T19:28:22.979Z,151.67
2019-02-18T19:30:52.625Z,162.73
2019-02-18T19:33:22.257Z,159.50
2019-02-18T19:35:52.009Z,150.30
2019-02-18T19:38:22.561Z,167.97
2019-02-18T19:40:54.602Z,178.87
2019-02-18T19:43:26.520Z,174.57
2019-02-18T19:45:56.192Z,178.17
2019-02-18T19:48:28.446Z,182.60
2019-02-18T19:50:58.128Z,214.03
2019-02-18T19:53:28.422Z,207.20
2019-02-18T19:55:58.048Z,186.80
2019-02-18T19:58:27.689Z,179.47
2019-02-18T20:00:57.393Z,169.80
2019-02-18T20:03:27.013Z,179.80
2019-02-18T20:06:02.033Z,161.77
2019-02-18T20:08:32.541Z,181.97
2019-02-18T20:11:02.226Z,168.80
2019-02-18T20:13:33.785Z,172.00
2019-02-18T20:16:03.425Z,167.07
2019-02-18T20:18:33.045Z,190.20
2019-02-18T20:21:02.704Z,200.10
2019-02-18T20:23:33.857Z,187.93
2019-02-18T20:26:03.504Z,175.50
2019-02-18T20:28:33.185Z,159.40
2019-02-18T20:31:02.867Z,141.80
2019-02-18T20:33:32.586Z,154.33
2019-02-18T20:36:02.294Z,145.90
2019-02-18T20:38:31.968Z,144.90
2019-02-18T20:41:04.180Z,139.23
2019-02-18T20:43:33.869Z,137.87
2019-02-18T20:46:03.503Z,146.83
2019-02-18T20:48:33.205Z,147.87
2019-02-18T20:51:02.905Z,150.70
2019-02-18T20:53:33.832Z,146.30
2019-02-18T20:56:03.561Z,143.20
2019-02-18T20:58:34.337Z,136.40
2019-02-18T21:01:03.979Z,135.83
2019-02-18T21:03:33.593Z,134.73
2019-02-18T21:06:03.745Z,142.70
2019-02-18T21:08:35.685Z,134.07
2019-02-18T21:11:05.397Z,144.17
2019-02-18T21:13:35.029Z,150.70
2019-02-18T21:16:04.996Z,144.30
2019-02-18T21:18:35.646Z,154.13
2019-02-18T21:21:06.231Z,146.57
2019-02-18T21:23:36.789Z,148.47
2019-02-18T21:26:06.409Z,163.77
2019-02-18T21:28:37.871Z,146.20
2019-02-18T21:31:07.485Z,145.23
2019-02-18T21:33:37.117Z,139.70
2019-02-18T21:36:06.741Z,149.30
2019-02-18T21:38:37.721Z,141.97
2019-02-18T21:41:07.329Z,138.83
2019-02-18T21:43:36.942Z,142.60
2019-02-18T21:46:06.561Z,146.67
2019-02-18T21:48:36.273Z,146.87
2019-02-18T21:51:06.533Z,135.30
2019-02-18T21:53:37.517Z,138.17
2019-02-18T21:56:07.223Z,130.33
2019-02-18T21:58:37.642Z,134.77
2019-02-18T22:01:07.258Z,130.83
2019-02-18T22:03:39.322Z,124.20
2019-02-18T22:06:08.993Z,137.50
2019-02-18T22:08:38.605Z,125.23
2019-02-18T22:11:08.217Z,142.90
2019-02-18T22:13:37.845Z,134.53
2019-02-18T22:16:07.619Z,153.43
2019-02-18T22:18:40.357Z,130.20
2019-02-18T22:21:09.962Z,139.13
2019-02-18T22:23:39.609Z,141.80
2019-02-18T22:26:09.252Z,131.77
2019-02-18T22:28:38.872Z,137.53
2019-02-18T22:31:08.682Z,132.47
2019-02-18T22:33:39.569Z,134.10
2019-02-18T22:36:10.426Z,134.00
2019-02-18T22:38:40.053Z,134.03
2019-02-18T22:41:09.671Z,141.77
2019-02-18T22:43:39.332Z,148.23
2019-02-18T22:46:10.229Z,140.33
2019-02-18T22:48:39.936Z,142.87
2019-02-18T22:51:09.566Z,152.53
2019-02-18T22:53:39.164Z,160.73
2019-02-18T22:56:08.830Z,161.93
2019-02-18T22:58:38.625Z,158.57
2019-02-18T23:01:08.672Z,154.37
2019-02-18T23:03:39.720Z,169.07
2019-02-18T23:06:10.773Z,161.97
2019-02-18T23:08:40.585Z,175.47
2019-02-18T23:11:10.189Z,197.43
2019-02-18T23:13:40.692Z,200.77
2019-02-18T23:16:10.309Z,217.30
2019-02-18T23:18:39.922Z,213.80
2019-02-18T23:21:09.565Z,206.97
2019-02-18T23:23:41.437Z,203.70
2019-02-18T23:26:11.060Z,215.63
2019-02-18T23:28:40.669Z,214.90
2019-02-18T23:31:11.600Z,219.77
2019-02-18T23:33:41.365Z,229.87
2019-02-18T23:36:11.006Z,229.77
2019-02-18T23:38:40.626Z,251.03
2019-02-18T23:41:11.597Z,214.40
2019-02-18T23:43:41.276Z,238.23
2019-02-18T23:46:10.881Z,239.77
2019-02-18T23:48:40.504Z,235.67
2019-02-18T23:51:10.309Z,261.53
2019-02-18T23:53:40.016Z,223.63
2019-02-18T23:56:09.669Z,231.73
2019-02-18T23:58:39.308Z,237.53
